sensor_id;sensor_type;location;lat;lon;timestamp;P1;durP1;ratioP1;P2;durP2;ratioP2
37459;SDS011;23318;50.966;5.284;2023-10-08T00:01:27;9.52;;;4.13;;
37459;SDS011;23318;50.966;5.284;2023-10-08T00:03:52;6.97;;;3.80;;
37459;SDS011;23318;50.966;5.284;2023-10-08T00:06:23;9.77;;;4.63;;
37459;SDS011;23318;50.966;5.284;2023-10-08T00:08:49;8.18;;;4.20;;
37459;SDS011;23318;50.966;5.284;2023-10-08T00:11:16;6.57;;;3.63;;
37459;SDS011;23318;50.966;5.284;2023-10-08T00:13:42;7.13;;;3.70;;
37459;SDS011;23318;50.966;5.284;2023-10-08T00:16:13;6.03;;;3.53;;
37459;SDS011;23318;50.966;5.284;2023-10-08T00:18:43;6.32;;;3.70;;
37459;SDS011;23318;50.966;5.284;2023-10-08T00:21:18;5.93;;;3.42;;
37459;SDS011;23318;50.966;5.284;2023-10-08T00:23:51;7.25;;;3.67;;
37459;SDS011;23318;50.966;5.284;2023-10-08T00:26:20;9.57;;;4.75;;
37459;SDS011;23318;50.966;5.284;2023-10-08T00:28:56;5.38;;;3.50;;
37459;SDS011;23318;50.966;5.284;2023-10-08T00:31:24;7.95;;;3.97;;
37459;SDS011;23318;50.966;5.284;2023-10-08T00:33:55;6.65;;;3.75;;
37459;SDS011;23318;50.966;5.284;2023-10-08T00:36:21;8.88;;;3.72;;
37459;SDS011;23318;50.966;5.284;2023-10-08T00:38:49;8.02;;;3.95;;
37459;SDS011;23318;50.966;5.284;2023-10-08T00:41:18;7.45;;;3.47;;
37459;SDS011;23318;50.966;5.284;2023-10-08T00:43:47;6.57;;;3.47;;
37459;SDS011;23318;50.966;5.284;2023-10-08T00:46:13;11.38;;;3.65;;
37459;SDS011;23318;50.966;5.284;2023-10-08T00:48:47;6.75;;;3.58;;
37459;SDS011;23318;50.966;5.284;2023-10-08T00:51:14;6.82;;;3.50;;
37459;SDS011;23318;50.966;5.284;2023-10-08T00:53:46;6.28;;;3.17;;
37459;SDS011;23318;50.966;5.284;2023-10-08T00:56:17;6.88;;;3.65;;
37459;SDS011;23318;50.966;5.284;2023-10-08T00:58:44;7.72;;;3.53;;
37459;SDS011;23318;50.966;5.284;2023-10-08T01:01:18;10.13;;;4.20;;
37459;SDS011;23318;50.966;5.284;2023-10-08T01:03:46;7.65;;;3.35;;
37459;SDS011;23318;50.966;5.284;2023-10-08T01:06:14;7.03;;;3.50;;
37459;SDS011;23318;50.966;5.284;2023-10-08T01:08:44;8.00;;;3.88;;
37459;SDS011;23318;50.966;5.284;2023-10-08T01:11:20;6.43;;;2.92;;
37459;SDS011;23318;50.966;5.284;2023-10-08T01:13:56;5.45;;;3.10;;
37459;SDS011;23318;50.966;5.284;2023-10-08T01:16:23;4.75;;;3.00;;
37459;SDS011;23318;50.966;5.284;2023-10-08T01:18:52;6.90;;;3.20;;
37459;SDS011;23318;50.966;5.284;2023-10-08T01:21:19;8.55;;;4.05;;
37459;SDS011;23318;50.966;5.284;2023-10-08T01:23:59;8.20;;;3.38;;
37459;SDS011;23318;50.966;5.284;2023-10-08T01:26:31;8.80;;;3.97;;
37459;SDS011;23318;50.966;5.284;2023-10-08T01:28:58;12.07;;;4.45;;
37459;SDS011;23318;50.966;5.284;2023-10-08T01:31:28;9.95;;;4.45;;
37459;SDS011;23318;50.966;5.284;2023-10-08T01:33:54;8.63;;;3.55;;
37459;SDS011;23318;50.966;5.284;2023-10-08T01:36:22;7.32;;;3.65;;
37459;SDS011;23318;50.966;5.284;2023-10-08T01:38:50;9.02;;;3.60;;
37459;SDS011;23318;50.966;5.284;2023-10-08T01:41:16;10.77;;;3.78;;
37459;SDS011;23318;50.966;5.284;2023-10-08T01:44:05;9.73;;;3.63;;
37459;SDS011;23318;50.966;5.284;2023-10-08T01:46:33;7.88;;;3.55;;
37459;SDS011;23318;50.966;5.284;2023-10-08T01:48:59;11.15;;;3.35;;
37459;SDS011;23318;50.966;5.284;2023-10-08T01:51:29;7.97;;;3.83;;
37459;SDS011;23318;50.966;5.284;2023-10-08T01:54:02;7.63;;;3.50;;
37459;SDS011;23318;50.966;5.284;2023-10-08T01:56:32;7.72;;;3.50;;
37459;SDS011;23318;50.966;5.284;2023-10-08T01:58:58;7.82;;;3.85;;
37459;SDS011;23318;50.966;5.284;2023-10-08T02:01:25;7.43;;;3.72;;
37459;SDS011;23318;50.966;5.284;2023-10-08T02:03:51;6.60;;;3.40;;
37459;SDS011;23318;50.966;5.284;2023-10-08T02:06:16;7.97;;;3.85;;
37459;SDS011;23318;50.966;5.284;2023-10-08T02:08:42;9.35;;;3.55;;
37459;SDS011;23318;50.966;5.284;2023-10-08T02:11:08;7.10;;;3.63;;
37459;SDS011;23318;50.966;5.284;2023-10-08T02:13:33;6.32;;;3.17;;
37459;SDS011;23318;50.966;5.284;2023-10-08T02:15:59;6.60;;;3.75;;
37459;SDS011;23318;50.966;5.284;2023-10-08T02:18:26;7.15;;;3.33;;
37459;SDS011;23318;50.966;5.284;2023-10-08T02:20:54;6.82;;;3.03;;
37459;SDS011;23318;50.966;5.284;2023-10-08T02:23:20;9.43;;;3.38;;
37459;SDS011;23318;50.966;5.284;2023-10-08T02:25:46;5.20;;;3.05;;
37459;SDS011;23318;50.966;5.284;2023-10-08T02:28:13;6.20;;;3.75;;
37459;SDS011;23318;50.966;5.284;2023-10-08T02:30:40;6.55;;;3.10;;
37459;SDS011;23318;50.966;5.284;2023-10-08T02:33:06;6.07;;;3.00;;
37459;SDS011;23318;50.966;5.284;2023-10-08T02:35:43;8.15;;;3.50;;
37459;SDS011;23318;50.966;5.284;2023-10-08T02:38:11;7.75;;;3.22;;
37459;SDS011;23318;50.966;5.284;2023-10-08T02:40:43;6.68;;;3.40;;
37459;SDS011;23318;50.966;5.284;2023-10-08T02:43:11;8.60;;;3.20;;
37459;SDS011;23318;50.966;5.284;2023-10-08T02:45:39;11.18;;;3.22;;
37459;SDS011;23318;50.966;5.284;2023-10-08T02:48:06;8.50;;;3.13;;
37459;SDS011;23318;50.966;5.284;2023-10-08T02:50:37;9.32;;;3.58;;
37459;SDS011;23318;50.966;5.284;2023-10-08T02:53:04;5.90;;;3.00;;
37459;SDS011;23318;50.966;5.284;2023-10-08T02:55:37;5.55;;;3.20;;
37459;SDS011;23318;50.966;5.284;2023-10-08T02:58:07;6.68;;;3.28;;
37459;SDS011;23318;50.966;5.284;2023-10-08T03:00:39;7.35;;;3.40;;
37459;SDS011;23318;50.966;5.284;2023-10-08T03:03:08;5.97;;;3.33;;
37459;SDS011;23318;50.966;5.284;2023-10-08T03:05:40;8.10;;;3.60;;
37459;SDS011;23318;50.966;5.284;2023-10-08T03:08:11;8.48;;;3.22;;
37459;SDS011;23318;50.966;5.284;2023-10-08T03:10:40;6.20;;;3.42;;
37459;SDS011;23318;50.966;5.284;2023-10-08T03:13:07;5.40;;;2.88;;
37459;SDS011;23318;50.966;5.284;2023-10-08T03:15:37;3.70;;;2.70;;
37459;SDS011;23318;50.966;5.284;2023-10-08T03:18:06;8.23;;;3.65;;
37459;SDS011;23318;50.966;5.284;2023-10-08T03:20:38;8.50;;;3.03;;
37459;SDS011;23318;50.966;5.284;2023-10-08T03:23:07;8.50;;;3.33;;
37459;SDS011;23318;50.966;5.284;2023-10-08T03:25:51;8.20;;;3.75;;
37459;SDS011;23318;50.966;5.284;2023-10-08T03:28:24;11.73;;;3.53;;
37459;SDS011;23318;50.966;5.284;2023-10-08T03:30:59;7.78;;;3.25;;
37459;SDS011;23318;50.966;5.284;2023-10-08T03:33:31;6.47;;;3.50;;
37459;SDS011;23318;50.966;5.284;2023-10-08T03:36:02;8.70;;;3.28;;
37459;SDS011;23318;50.966;5.284;2023-10-08T03:38:55;11.73;;;3.58;;
37459;SDS011;23318;50.966;5.284;2023-10-08T03:41:22;6.18;;;3.50;;
37459;SDS011;23318;50.966;5.284;2023-10-08T03:43:55;6.70;;;3.05;;
37459;SDS011;23318;50.966;5.284;2023-10-08T03:46:29;8.50;;;3.22;;
37459;SDS011;23318;50.966;5.284;2023-10-08T03:48:55;5.57;;;2.97;;
37459;SDS011;23318;50.966;5.284;2023-10-08T03:51:22;11.50;;;3.50;;
37459;SDS011;23318;50.966;5.284;2023-10-08T03:53:52;8.18;;;3.78;;
37459;SDS011;23318;50.966;5.284;2023-10-08T03:56:25;11.43;;;3.58;;
37459;SDS011;23318;50.966;5.284;2023-10-08T03:58:54;7.00;;;3.30;;
37459;SDS011;23318;50.966;5.284;2023-10-08T04:01:21;9.48;;;3.60;;
37459;SDS011;23318;50.966;5.284;2023-10-08T04:03:47;5.32;;;3.28;;
37459;SDS011;23318;50.966;5.284;2023-10-08T04:06:16;11.35;;;3.40;;
37459;SDS011;23318;50.966;5.284;2023-10-08T04:08:41;7.68;;;3.67;;
37459;SDS011;23318;50.966;5.284;2023-10-08T04:11:23;5.70;;;3.05;;
37459;SDS011;23318;50.966;5.284;2023-10-08T04:14:04;8.48;;;3.65;;
37459;SDS011;23318;50.966;5.284;2023-10-08T04:16:31;6.15;;;3.38;;
37459;SDS011;23318;50.966;5.284;2023-10-08T04:19:02;6.50;;;3.40;;
37459;SDS011;23318;50.966;5.284;2023-10-08T04:21:29;8.48;;;3.63;;
37459;SDS011;23318;50.966;5.284;2023-10-08T04:23:55;6.20;;;3.15;;
37459;SDS011;23318;50.966;5.284;2023-10-08T04:26:22;6.93;;;3.33;;
37459;SDS011;23318;50.966;5.284;2023-10-08T04:28:55;7.65;;;3.42;;
37459;SDS011;23318;50.966;5.284;2023-10-08T04:31:30;9.48;;;3.60;;
37459;SDS011;23318;50.966;5.284;2023-10-08T04:34:03;7.07;;;3.75;;
37459;SDS011;23318;50.966;5.284;2023-10-08T04:36:41;6.40;;;3.20;;
37459;SDS011;23318;50.966;5.284;2023-10-08T04:39:11;7.20;;;3.47;;
37459;SDS011;23318;50.966;5.284;2023-10-08T04:41:46;8.05;;;3.78;;
37459;SDS011;23318;50.966;5.284;2023-10-08T04:44:13;6.90;;;2.95;;
37459;SDS011;23318;50.966;5.284;2023-10-08T04:46:44;6.68;;;3.40;;
37459;SDS011;23318;50.966;5.284;2023-10-08T04:49:16;6.03;;;3.42;;
37459;SDS011;23318;50.966;5.284;2023-10-08T04:51:53;7.10;;;3.08;;
37459;SDS011;23318;50.966;5.284;2023-10-08T04:54:22;6.15;;;3.05;;
37459;SDS011;23318;50.966;5.284;2023-10-08T04:56:55;8.10;;;3.77;;
37459;SDS011;23318;50.966;5.284;2023-10-08T04:59:26;6.63;;;3.22;;
37459;SDS011;23318;50.966;5.284;2023-10-08T05:02:04;7.72;;;3.42;;
37459;SDS011;23318;50.966;5.284;2023-10-08T05:04:53;5.93;;;3.20;;
37459;SDS011;23318;50.966;5.284;2023-10-08T05:07:42;8.85;;;3.67;;
37459;SDS011;23318;50.966;5.284;2023-10-08T05:10:10;5.32;;;3.40;;
37459;SDS011;23318;50.966;5.284;2023-10-08T05:12:37;5.97;;;3.33;;
37459;SDS011;23318;50.966;5.284;2023-10-08T05:15:10;7.05;;;3.75;;
37459;SDS011;23318;50.966;5.284;2023-10-08T05:17:43;7.75;;;3.75;;
37459;SDS011;23318;50.966;5.284;2023-10-08T05:20:15;10.52;;;3.75;;
37459;SDS011;23318;50.966;5.284;2023-10-08T05:23:12;9.85;;;3.95;;
37459;SDS011;23318;50.966;5.284;2023-10-08T05:25:54;7.78;;;3.50;;
37459;SDS011;23318;50.966;5.284;2023-10-08T05:28:34;6.82;;;3.35;;
37459;SDS011;23318;50.966;5.284;2023-10-08T05:31:33;6.90;;;3.38;;
37459;SDS011;23318;50.966;5.284;2023-10-08T05:34:12;6.82;;;3.35;;
37459;SDS011;23318;50.966;5.284;2023-10-08T05:37:04;7.38;;;3.60;;
37459;SDS011;23318;50.966;5.284;2023-10-08T05:39:30;7.40;;;3.55;;
37459;SDS011;23318;50.966;5.284;2023-10-08T05:42:16;5.70;;;2.88;;
37459;SDS011;23318;50.966;5.284;2023-10-08T05:44:45;9.13;;;3.80;;
37459;SDS011;23318;50.966;5.284;2023-10-08T05:47:15;8.65;;;3.88;;
37459;SDS011;23318;50.966;5.284;2023-10-08T05:49:53;13.55;;;4.18;;
37459;SDS011;23318;50.966;5.284;2023-10-08T05:52:39;11.43;;;3.92;;
37459;SDS011;23318;50.966;5.284;2023-10-08T05:55:23;7.05;;;4.10;;
37459;SDS011;23318;50.966;5.284;2023-10-08T05:57:59;10.93;;;4.57;;
37459;SDS011;23318;50.966;5.284;2023-10-08T06:00:44;7.78;;;3.70;;
37459;SDS011;23318;50.966;5.284;2023-10-08T06:03:26;9.77;;;3.53;;
37459;SDS011;23318;50.966;5.284;2023-10-08T06:06:01;7.60;;;4.10;;
37459;SDS011;23318;50.966;5.284;2023-10-08T06:08:37;6.35;;;3.75;;
37459;SDS011;23318;50.966;5.284;2023-10-08T06:11:26;15.63;;;4.65;;
37459;SDS011;23318;50.966;5.284;2023-10-08T06:14:21;9.05;;;4.38;;
37459;SDS011;23318;50.966;5.284;2023-10-08T06:17:05;7.32;;;4.20;;
37459;SDS011;23318;50.966;5.284;2023-10-08T06:19:59;7.15;;;4.32;;
37459;SDS011;23318;50.966;5.284;2023-10-08T06:22:34;7.13;;;4.20;;
37459;SDS011;23318;50.966;5.284;2023-10-08T06:25:00;9.43;;;3.72;;
37459;SDS011;23318;50.966;5.284;2023-10-08T06:27:42;6.65;;;3.53;;
37459;SDS011;23318;50.966;5.284;2023-10-08T06:30:10;6.03;;;3.63;;
37459;SDS011;23318;50.966;5.284;2023-10-08T06:32:42;8.52;;;4.00;;
37459;SDS011;23318;50.966;5.284;2023-10-08T06:35:16;11.00;;;3.72;;
37459;SDS011;23318;50.966;5.284;2023-10-08T06:37:51;7.55;;;3.42;;
37459;SDS011;23318;50.966;5.284;2023-10-08T06:40:20;8.25;;;4.15;;
37459;SDS011;23318;50.966;5.284;2023-10-08T06:43:01;5.95;;;3.30;;
37459;SDS011;23318;50.966;5.284;2023-10-08T06:45:36;6.07;;;3.47;;
37459;SDS011;23318;50.966;5.284;2023-10-08T06:48:10;8.38;;;4.07;;
37459;SDS011;23318;50.966;5.284;2023-10-08T06:50:43;8.10;;;3.67;;
37459;SDS011;23318;50.966;5.284;2023-10-08T06:53:10;7.65;;;3.33;;
37459;SDS011;23318;50.966;5.284;2023-10-08T06:55:38;7.95;;;3.60;;
37459;SDS011;23318;50.966;5.284;2023-10-08T06:58:08;4.28;;;3.08;;
37459;SDS011;23318;50.966;5.284;2023-10-08T07:00:35;7.82;;;4.00;;
37459;SDS011;23318;50.966;5.284;2023-10-08T07:03:05;7.32;;;3.95;;
37459;SDS011;23318;50.966;5.284;2023-10-08T07:05:49;10.02;;;3.60;;
37459;SDS011;23318;50.966;5.284;2023-10-08T07:08:22;7.50;;;2.88;;
37459;SDS011;23318;50.966;5.284;2023-10-08T07:10:52;7.40;;;3.47;;
37459;SDS011;23318;50.966;5.284;2023-10-08T07:13:19;8.52;;;3.85;;
37459;SDS011;23318;50.966;5.284;2023-10-08T07:15:49;6.15;;;3.28;;
37459;SDS011;23318;50.966;5.284;2023-10-08T07:18:16;10.73;;;3.22;;
37459;SDS011;23318;50.966;5.284;2023-10-08T07:20:54;7.47;;;3.17;;
37459;SDS011;23318;50.966;5.284;2023-10-08T07:23:23;9.43;;;3.58;;
37459;SDS011;23318;50.966;5.284;2023-10-08T07:26:00;7.25;;;3.70;;
37459;SDS011;23318;50.966;5.284;2023-10-08T07:28:39;8.07;;;3.33;;
37459;SDS011;23318;50.966;5.284;2023-10-08T07:31:27;10.10;;;3.92;;
37459;SDS011;23318;50.966;5.284;2023-10-08T07:33:54;6.57;;;4.05;;
37459;SDS011;23318;50.966;5.284;2023-10-08T07:36:30;8.77;;;4.03;;
37459;SDS011;23318;50.966;5.284;2023-10-08T07:38:56;8.88;;;4.03;;
37459;SDS011;23318;50.966;5.284;2023-10-08T07:41:22;6.88;;;3.75;;
37459;SDS011;23318;50.966;5.284;2023-10-08T07:43:48;6.90;;;3.50;;
37459;SDS011;23318;50.966;5.284;2023-10-08T07:46:24;11.90;;;4.20;;
37459;SDS011;23318;50.966;5.284;2023-10-08T07:48:53;8.05;;;3.70;;
37459;SDS011;23318;50.966;5.284;2023-10-08T07:51:20;7.38;;;3.85;;
37459;SDS011;23318;50.966;5.284;2023-10-08T07:53:47;6.45;;;3.42;;
37459;SDS011;23318;50.966;5.284;2023-10-08T07:56:14;6.15;;;3.50;;
37459;SDS011;23318;50.966;5.284;2023-10-08T07:58:39;5.93;;;3.65;;
37459;SDS011;23318;50.966;5.284;2023-10-08T08:01:08;6.60;;;3.78;;
37459;SDS011;23318;50.966;5.284;2023-10-08T08:03:34;10.05;;;4.07;;
37459;SDS011;23318;50.966;5.284;2023-10-08T08:06:03;5.57;;;3.15;;
37459;SDS011;23318;50.966;5.284;2023-10-08T08:08:31;8.50;;;3.80;;
37459;SDS011;23318;50.966;5.284;2023-10-08T08:11:00;6.03;;;3.55;;
37459;SDS011;23318;50.966;5.284;2023-10-08T08:13:37;9.73;;;4.03;;
37459;SDS011;23318;50.966;5.284;2023-10-08T08:16:07;6.25;;;3.67;;
37459;SDS011;23318;50.966;5.284;2023-10-08T08:18:45;7.22;;;3.35;;
37459;SDS011;23318;50.966;5.284;2023-10-08T08:21:12;7.63;;;3.92;;
37459;SDS011;23318;50.966;5.284;2023-10-08T08:23:42;7.18;;;4.05;;
37459;SDS011;23318;50.966;5.284;2023-10-08T08:26:24;9.80;;;3.70;;
37459;SDS011;23318;50.966;5.284;2023-10-08T08:28:56;8.32;;;3.83;;
37459;SDS011;23318;50.966;5.284;2023-10-08T08:31:24;9.25;;;3.83;;
37459;SDS011;23318;50.966;5.284;2023-10-08T08:33:52;11.85;;;4.22;;
37459;SDS011;23318;50.966;5.284;2023-10-08T08:36:21;11.38;;;4.35;;
37459;SDS011;23318;50.966;5.284;2023-10-08T08:38:48;7.88;;;4.40;;
37459;SDS011;23318;50.966;5.284;2023-10-08T08:41:15;8.05;;;4.20;;
37459;SDS011;23318;50.966;5.284;2023-10-08T08:43:50;7.80;;;3.90;;
37459;SDS011;23318;50.966;5.284;2023-10-08T08:46:36;9.38;;;4.80;;
37459;SDS011;23318;50.966;5.284;2023-10-08T08:49:06;11.10;;;4.20;;
37459;SDS011;23318;50.966;5.284;2023-10-08T08:51:33;14.05;;;4.60;;
37459;SDS011;23318;50.966;5.284;2023-10-08T08:54:02;11.07;;;4.55;;
37459;SDS011;23318;50.966;5.284;2023-10-08T08:56:35;9.23;;;4.53;;
37459;SDS011;23318;50.966;5.284;2023-10-08T08:59:06;9.80;;;4.72;;
37459;SDS011;23318;50.966;5.284;2023-10-08T09:01:36;12.70;;;4.38;;
37459;SDS011;23318;50.966;5.284;2023-10-08T09:04:04;11.05;;;4.63;;
37459;SDS011;23318;50.966;5.284;2023-10-08T09:06:33;13.85;;;4.78;;
37459;SDS011;23318;50.966;5.284;2023-10-08T09:09:03;11.43;;;4.75;;
37459;SDS011;23318;50.966;5.284;2023-10-08T09:11:50;13.98;;;5.03;;
37459;SDS011;23318;50.966;5.284;2023-10-08T09:14:20;11.98;;;5.45;;
37459;SDS011;23318;50.966;5.284;2023-10-08T09:16:47;11.77;;;4.75;;
37459;SDS011;23318;50.966;5.284;2023-10-08T09:19:13;8.40;;;4.65;;
37459;SDS011;23318;50.966;5.284;2023-10-08T09:24:30;14.50;;;4.45;;
37459;SDS011;23318;50.966;5.284;2023-10-08T09:26:58;12.95;;;5.28;;
37459;SDS011;23318;50.966;5.284;2023-10-08T09:29:25;9.73;;;4.95;;
37459;SDS011;23318;50.966;5.284;2023-10-08T09:31:58;13.38;;;5.55;;
37459;SDS011;23318;50.966;5.284;2023-10-08T09:34:28;11.60;;;5.10;;
37459;SDS011;23318;50.966;5.284;2023-10-08T09:36:56;9.38;;;5.45;;
37459;SDS011;23318;50.966;5.284;2023-10-08T09:39:25;10.77;;;4.95;;
37459;SDS011;23318;50.966;5.284;2023-10-08T09:41:53;16.20;;;5.57;;
37459;SDS011;23318;50.966;5.284;2023-10-08T09:44:23;13.88;;;5.78;;
37459;SDS011;23318;50.966;5.284;2023-10-08T09:46:53;13.05;;;6.03;;
37459;SDS011;23318;50.966;5.284;2023-10-08T09:49:33;15.38;;;6.25;;
37459;SDS011;23318;50.966;5.284;2023-10-08T09:52:24;14.07;;;6.15;;
37459;SDS011;23318;50.966;5.284;2023-10-08T09:55:02;10.75;;;5.47;;
37459;SDS011;23318;50.966;5.284;2023-10-08T09:57:37;14.75;;;5.60;;
37459;SDS011;23318;50.966;5.284;2023-10-08T10:00:06;12.93;;;5.85;;
37459;SDS011;23318;50.966;5.284;2023-10-08T10:02:40;16.92;;;6.63;;
37459;SDS011;23318;50.966;5.284;2023-10-08T10:05:11;15.20;;;5.68;;
37459;SDS011;23318;50.966;5.284;2023-10-08T10:07:38;13.00;;;5.53;;
37459;SDS011;23318;50.966;5.284;2023-10-08T10:10:31;16.40;;;6.15;;
37459;SDS011;23318;50.966;5.284;2023-10-08T10:13:00;11.65;;;5.00;;
37459;SDS011;23318;50.966;5.284;2023-10-08T10:15:27;13.20;;;5.90;;
37459;SDS011;23318;50.966;5.284;2023-10-08T10:17:58;13.52;;;5.78;;
37459;SDS011;23318;50.966;5.284;2023-10-08T10:20:34;13.65;;;5.63;;
37459;SDS011;23318;50.966;5.284;2023-10-08T10:23:20;14.82;;;6.47;;
37459;SDS011;23318;50.966;5.284;2023-10-08T10:26:25;14.32;;;6.20;;
37459;SDS011;23318;50.966;5.284;2023-10-08T10:29:31;12.82;;;6.30;;
37459;SDS011;23318;50.966;5.284;2023-10-08T10:31:52;14.23;;;5.53;;
37459;SDS011;23318;50.966;5.284;2023-10-08T10:34:22;19.10;;;6.13;;
37459;SDS011;23318;50.966;5.284;2023-10-08T10:36:52;15.35;;;6.00;;
37459;SDS011;23318;50.966;5.284;2023-10-08T10:39:33;15.75;;;6.55;;
37459;SDS011;23318;50.966;5.284;2023-10-08T10:42:05;14.05;;;5.65;;
37459;SDS011;23318;50.966;5.284;2023-10-08T10:44:45;13.50;;;6.20;;
37459;SDS011;23318;50.966;5.284;2023-10-08T10:47:14;15.18;;;6.57;;
37459;SDS011;23318;50.966;5.284;2023-10-08T10:49:40;11.70;;;5.50;;
37459;SDS011;23318;50.966;5.284;2023-10-08T10:52:24;14.40;;;5.68;;
37459;SDS011;23318;50.966;5.284;2023-10-08T10:55:06;15.07;;;5.85;;
37459;SDS011;23318;50.966;5.284;2023-10-08T10:57:56;13.43;;;5.55;;
37459;SDS011;23318;50.966;5.284;2023-10-08T11:00:36;17.05;;;6.07;;
37459;SDS011;23318;50.966;5.284;2023-10-08T11:03:03;13.32;;;5.63;;
37459;SDS011;23318;50.966;5.284;2023-10-08T11:05:46;11.07;;;5.38;;
37459;SDS011;23318;50.966;5.284;2023-10-08T11:08:16;14.05;;;6.63;;
37459;SDS011;23318;50.966;5.284;2023-10-08T11:10:48;14.07;;;5.80;;
37459;SDS011;23318;50.966;5.284;2023-10-08T11:13:16;15.32;;;6.45;;
37459;SDS011;23318;50.966;5.284;2023-10-08T11:15:45;12.57;;;5.25;;
37459;SDS011;23318;50.966;5.284;2023-10-08T11:18:17;11.20;;;5.60;;
37459;SDS011;23318;50.966;5.284;2023-10-08T11:20:44;13.50;;;5.35;;
37459;SDS011;23318;50.966;5.284;2023-10-08T11:23:35;13.10;;;5.90;;
37459;SDS011;23318;50.966;5.284;2023-10-08T11:26:03;13.75;;;5.85;;
37459;SDS011;23318;50.966;5.284;2023-10-08T11:28:37;12.63;;;5.90;;
37459;SDS011;23318;50.966;5.284;2023-10-08T11:31:07;18.42;;;5.80;;
37459;SDS011;23318;50.966;5.284;2023-10-08T11:33:42;12.52;;;5.57;;
37459;SDS011;23318;50.966;5.284;2023-10-08T11:36:21;13.13;;;6.03;;
37459;SDS011;23318;50.966;5.284;2023-10-08T11:38:54;14.30;;;6.25;;
37459;SDS011;23318;50.966;5.284;2023-10-08T11:41:27;12.18;;;5.38;;
37459;SDS011;23318;50.966;5.284;2023-10-08T11:44:00;10.43;;;5.15;;
37459;SDS011;23318;50.966;5.284;2023-10-08T11:49:06;14.18;;;5.63;;
37459;SDS011;23318;50.966;5.284;2023-10-08T11:51:43;13.90;;;5.43;;
37459;SDS011;23318;50.966;5.284;2023-10-08T11:54:10;11.23;;;5.38;;
37459;SDS011;23318;50.966;5.284;2023-10-08T11:56:39;10.68;;;5.50;;
37459;SDS011;23318;50.966;5.284;2023-10-08T11:59:06;13.85;;;5.65;;
37459;SDS011;23318;50.966;5.284;2023-10-08T12:01:38;13.88;;;5.30;;
37459;SDS011;23318;50.966;5.284;2023-10-08T12:04:07;12.30;;;5.20;;
37459;SDS011;23318;50.966;5.284;2023-10-08T12:06:38;15.13;;;5.40;;
37459;SDS011;23318;50.966;5.284;2023-10-08T12:09:09;11.15;;;5.05;;
37459;SDS011;23318;50.966;5.284;2023-10-08T12:11:37;7.78;;;5.07;;
37459;SDS011;23318;50.966;5.284;2023-10-08T12:14:04;9.43;;;4.63;;
37459;SDS011;23318;50.966;5.284;2023-10-08T12:16:30;11.13;;;5.43;;
37459;SDS011;23318;50.966;5.284;2023-10-08T12:19:01;11.07;;;5.40;;
37459;SDS011;23318;50.966;5.284;2023-10-08T12:21:28;12.93;;;5.20;;
37459;SDS011;23318;50.966;5.284;2023-10-08T12:23:57;13.15;;;5.25;;
37459;SDS011;23318;50.966;5.284;2023-10-08T12:26:23;12.98;;;5.55;;
37459;SDS011;23318;50.966;5.284;2023-10-08T12:28:49;11.15;;;5.68;;
37459;SDS011;23318;50.966;5.284;2023-10-08T12:31:16;12.02;;;5.90;;
37459;SDS011;23318;50.966;5.284;2023-10-08T12:33:47;10.07;;;5.57;;
37459;SDS011;23318;50.966;5.284;2023-10-08T12:36:14;9.68;;;5.10;;
37459;SDS011;23318;50.966;5.284;2023-10-08T12:38:42;8.70;;;5.22;;
37459;SDS011;23318;50.966;5.284;2023-10-08T12:41:09;15.90;;;5.43;;
37459;SDS011;23318;50.966;5.284;2023-10-08T12:43:42;15.18;;;6.30;;
37459;SDS011;23318;50.966;5.284;2023-10-08T12:46:17;12.10;;;5.47;;
37459;SDS011;23318;50.966;5.284;2023-10-08T12:48:48;11.93;;;5.20;;
37459;SDS011;23318;50.966;5.284;2023-10-08T12:51:18;10.10;;;5.18;;
37459;SDS011;23318;50.966;5.284;2023-10-08T12:53:51;12.50;;;5.28;;
37459;SDS011;23318;50.966;5.284;2023-10-08T12:56:38;10.85;;;5.00;;
37459;SDS011;23318;50.966;5.284;2023-10-08T12:59:09;10.48;;;4.70;;
37459;SDS011;23318;50.966;5.284;2023-10-08T13:01:45;10.65;;;4.07;;
37459;SDS011;23318;50.966;5.284;2023-10-08T13:04:15;12.80;;;5.00;;
37459;SDS011;23318;50.966;5.284;2023-10-08T13:06:57;9.75;;;4.40;;
37459;SDS011;23318;50.966;5.284;2023-10-08T13:09:26;9.87;;;5.10;;
37459;SDS011;23318;50.966;5.284;2023-10-08T13:11:51;8.85;;;4.65;;
37459;SDS011;23318;50.966;5.284;2023-10-08T13:14:17;10.38;;;5.30;;
37459;SDS011;23318;50.966;5.284;2023-10-08T13:16:43;10.85;;;4.40;;
37459;SDS011;23318;50.966;5.284;2023-10-08T13:19:10;9.18;;;4.55;;
37459;SDS011;23318;50.966;5.284;2023-10-08T13:21:36;12.27;;;4.43;;
37459;SDS011;23318;50.966;5.284;2023-10-08T13:24:02;15.75;;;5.30;;
37459;SDS011;23318;50.966;5.284;2023-10-08T13:26:30;10.43;;;5.00;;
37459;SDS011;23318;50.966;5.284;2023-10-08T13:28:59;11.82;;;4.68;;
37459;SDS011;23318;50.966;5.284;2023-10-08T13:31:25;10.07;;;3.85;;
37459;SDS011;23318;50.966;5.284;2023-10-08T13:33:51;9.95;;;4.40;;
37459;SDS011;23318;50.966;5.284;2023-10-08T13:36:17;12.18;;;4.15;;
37459;SDS011;23318;50.966;5.284;2023-10-08T13:38:43;14.27;;;5.00;;
37459;SDS011;23318;50.966;5.284;2023-10-08T13:41:13;10.90;;;3.97;;
37459;SDS011;23318;50.966;5.284;2023-10-08T13:43:43;11.43;;;4.60;;
37459;SDS011;23318;50.966;5.284;2023-10-08T13:46:11;10.05;;;3.80;;
37459;SDS011;23318;50.966;5.284;2023-10-08T13:48:42;8.35;;;4.00;;
37459;SDS011;23318;50.966;5.284;2023-10-08T13:51:13;10.57;;;3.97;;
37459;SDS011;23318;50.966;5.284;2023-10-08T13:53:41;7.90;;;4.53;;
37459;SDS011;23318;50.966;5.284;2023-10-08T13:56:10;11.93;;;3.72;;
37459;SDS011;23318;50.966;5.284;2023-10-08T13:58:37;11.00;;;4.43;;
37459;SDS011;23318;50.966;5.284;2023-10-08T14:01:11;12.75;;;4.85;;
37459;SDS011;23318;50.966;5.284;2023-10-08T14:03:48;12.27;;;4.78;;
37459;SDS011;23318;50.966;5.284;2023-10-08T14:06:17;11.27;;;4.88;;
37459;SDS011;23318;50.966;5.284;2023-10-08T14:08:43;9.75;;;4.32;;
37459;SDS011;23318;50.966;5.284;2023-10-08T14:11:19;10.15;;;4.05;;
37459;SDS011;23318;50.966;5.284;2023-10-08T14:13:49;11.57;;;3.97;;
37459;SDS011;23318;50.966;5.284;2023-10-08T14:16:18;11.25;;;3.95;;
37459;SDS011;23318;50.966;5.284;2023-10-08T14:18:48;9.25;;;3.85;;
37459;SDS011;23318;50.966;5.284;2023-10-08T14:21:18;11.52;;;4.30;;
37459;SDS011;23318;50.966;5.284;2023-10-08T14:23:55;9.00;;;4.07;;
37459;SDS011;23318;50.966;5.284;2023-10-08T14:26:30;9.30;;;4.50;;
37459;SDS011;23318;50.966;5.284;2023-10-08T14:29:02;9.20;;;4.38;;
37459;SDS011;23318;50.966;5.284;2023-10-08T14:31:40;8.77;;;4.03;;
37459;SDS011;23318;50.966;5.284;2023-10-08T14:34:08;8.27;;;4.47;;
37459;SDS011;23318;50.966;5.284;2023-10-08T14:36:46;9.93;;;4.95;;
37459;SDS011;23318;50.966;5.284;2023-10-08T14:39:32;15.00;;;5.13;;
37459;SDS011;23318;50.966;5.284;2023-10-08T14:42:17;11.98;;;4.57;;
37459;SDS011;23318;50.966;5.284;2023-10-08T14:45:01;8.02;;;3.35;;
37459;SDS011;23318;50.966;5.284;2023-10-08T14:47:28;8.55;;;4.05;;
37459;SDS011;23318;50.966;5.284;2023-10-08T14:49:54;11.95;;;5.10;;
37459;SDS011;23318;50.966;5.284;2023-10-08T14:52:19;11.18;;;3.85;;
37459;SDS011;23318;50.966;5.284;2023-10-08T14:54:45;8.85;;;4.13;;
37459;SDS011;23318;50.966;5.284;2023-10-08T14:57:13;9.13;;;3.78;;
37459;SDS011;23318;50.966;5.284;2023-10-08T14:59:39;12.57;;;3.92;;
37459;SDS011;23318;50.966;5.284;2023-10-08T15:02:06;12.13;;;4.10;;
37459;SDS011;23318;50.966;5.284;2023-10-08T15:04:34;8.85;;;4.38;;
37459;SDS011;23318;50.966;5.284;2023-10-08T15:07:04;9.35;;;4.32;;
37459;SDS011;23318;50.966;5.284;2023-10-08T15:09:33;12.70;;;4.30;;
37459;SDS011;23318;50.966;5.284;2023-10-08T15:11:59;10.98;;;4.32;;
37459;SDS011;23318;50.966;5.284;2023-10-08T15:14:26;8.15;;;4.28;;
37459;SDS011;23318;50.966;5.284;2023-10-08T15:16:52;7.88;;;4.18;;